Time;durP1;ratioP1;P1;durP2;ratioP2;P2;SDS_P1;SDS_P2;PMS_P1;PMS_P2;Temp;Humidity;BMP_temperature;BMP_pressure;BME280_temperature;BME280_humidity;BME280_pressure;Samples;Min_cycle;Max_cycle;Signal;HPM_P1;HPM_P2
2022/06/09 00:01:06;;;;;;;4.13;0.40;;;;;;;;;;5067127;28;20024;-75
2022/06/09 00:03:35;;;;;;;3.55;0.80;;;;;;;;;;5061989;28;20532;-75
2022/06/09 00:06:01;;;;;;;5.32;0.73;;;;;;;;;;5069060;28;20024;-75
2022/06/09 00:08:29;;;;;;;4.15;1.20;;;;;;;;;;5069705;28;20106;-74
2022/06/09 00:10:58;;;;;;;4.97;1.42;;;;;;;;;;5063880;28;20037;-74
2022/06/09 00:13:25;;;;;;;3.53;1.33;;;;;;;;;;5059260;28;20036;-74
2022/06/09 00:15:51;;;;;;;4.57;1.10;;;;;;;;;;5064000;28;20397;-74
2022/06/09 00:18:17;;;;;;;2.35;0.80;;;;;;;;;;5069503;28;20504;-74
2022/06/09 00:20:43;;;;;;;5.10;1.20;;;;;;;;;;5054039;28;20080;-74
2022/06/09 00:23:10;;;;;;;2.83;0.93;;;;;;;;;;5059960;28;20083;-75
2022/06/09 00:25:36;;;;;;;5.22;0.60;;;;;;;;;;5060801;28;20073;-75
2022/06/09 00:28:03;;;;;;;3.75;0.63;;;;;;;;;;5055316;28;20123;-75
2022/06/09 00:30:29;;;;;;;2.90;0.90;;;;;;;;;;5053676;28;20041;-75
2022/06/09 00:32:55;;;;;;;4.03;1.40;;;;;;;;;;5058402;28;20688;-74
2022/06/09 00:35:21;;;;;;;3.75;0.70;;;;;;;;;;5054808;28;20025;-74
2022/06/09 00:37:48;;;;;;;0.95;0.50;;;;;;;;;;5054151;28;20041;-74
2022/06/09 00:40:15;;;;;;;2.75;0.32;;;;;;;;;;5055593;28;20059;-75
2022/06/09 00:42:41;;;;;;;2.88;0.40;;;;;;;;;;5061800;28;20641;-75
2022/06/09 00:45:26;;;;;;;2.58;0.50;;;;;;;;;;5053067;28;20438;-75
2022/06/09 00:47:54;;;;;;;4.00;0.75;;;;;;;;;;5063920;28;20035;-75
2022/06/09 00:50:22;;;;;;;4.43;0.70;;;;;;;;;;5068756;28;20059;-74
2022/06/09 00:52:51;;;;;;;1.88;0.60;;;;;;;;;;5061961;28;20063;-75
2022/06/09 00:55:19;;;;;;;2.33;0.50;;;;;;;;;;5069378;28;20039;-74
2022/06/09 00:57:48;;;;;;;5.30;0.50;;;;;;;;;;5058354;28;20037;-75
2022/06/09 01:00:16;;;;;;;3.15;0.45;;;;;;;;;;5060691;28;20048;-74
2022/06/09 01:02:43;;;;;;;3.17;0.50;;;;;;;;;;5055388;28;20035;-74
2022/06/09 01:05:10;;;;;;;3.63;0.60;;;;;;;;;;5059040;28;20504;-75
2022/06/09 01:07:38;;;;;;;2.58;0.60;;;;;;;;;;5053773;28;20132;-75
2022/06/09 01:10:05;;;;;;;2.40;0.50;;;;;;;;;;5059725;28;20057;-74
2022/06/09 01:12:33;;;;;;;2.20;0.40;;;;;;;;;;5061645;28;20033;-75
2022/06/09 01:15:02;;;;;;;4.32;1.17;;;;;;;;;;5065588;28;20764;-74
2022/06/09 01:17:46;;;;;;;2.05;0.50;;;;;;;;;;5055127;28;20041;-74
2022/06/09 01:20:20;;;;;;;1.80;0.52;;;;;;;;;;5058810;28;20717;-74
2022/06/09 01:23:05;;;;;;;2.22;0.60;;;;;;;;;;5065934;28;20055;-74
2022/06/09 01:25:45;;;;;;;3.15;0.55;;;;;;;;;;5059764;28;20037;-74
2022/06/09 01:28:25;;;;;;;3.75;0.50;;;;;;;;;;5064075;28;20040;-74
2022/06/09 01:30:54;;;;;;;6.28;0.50;;;;;;;;;;5066627;28;20038;-74
2022/06/09 01:33:28;;;;;;;3.92;0.85;;;;;;;;;;5059334;28;20037;-75
2022/06/09 01:35:56;;;;;;;3.63;0.60;;;;;;;;;;5056035;28;20112;-74
2022/06/09 01:38:22;;;;;;;4.13;0.70;;;;;;;;;;5060322;28;20036;-75
2022/06/09 01:40:49;;;;;;;4.93;0.85;;;;;;;;;;5068564;28;20104;-74
2022/06/09 01:43:15;;;;;;;7.13;1.70;;;;;;;;;;5057098;28;20037;-74
2022/06/09 01:45:50;;;;;;;8.02;1.00;;;;;;;;;;5069991;28;20129;-74
2022/06/09 01:48:17;;;;;;;6.22;1.20;;;;;;;;;;5060327;28;20040;-74
2022/06/09 01:50:43;;;;;;;8.80;0.90;;;;;;;;;;5073454;28;20032;-74
2022/06/09 01:53:19;;;;;;;7.80;1.05;;;;;;;;;;5065596;28;20075;-74
2022/06/09 01:55:47;;;;;;;5.45;1.13;;;;;;;;;;5072726;28;20032;-74
2022/06/09 01:58:15;;;;;;;5.03;0.80;;;;;;;;;;5057757;28;20522;-74
2022/06/09 02:00:42;;;;;;;3.35;0.70;;;;;;;;;;5062223;28;20056;-74
2022/06/09 02:03:13;;;;;;;5.50;0.70;;;;;;;;;;5058479;28;20040;-74
2022/06/09 02:05:41;;;;;;;5.57;0.63;;;;;;;;;;5053992;28;20604;-75
2022/06/09 02:08:14;;;;;;;4.97;0.68;;;;;;;;;;5061717;28;20031;-74
2022/06/09 02:10:42;;;;;;;4.45;0.70;;;;;;;;;;5059217;28;20072;-75
2022/06/09 02:13:16;;;;;;;3.45;0.40;;;;;;;;;;5061471;28;21096;-74
2022/06/09 02:15:43;;;;;;;3.67;0.70;;;;;;;;;;5071803;28;20064;-75
2022/06/09 02:18:12;;;;;;;1.25;0.40;;;;;;;;;;5062987;28;20064;-75
2022/06/09 02:20:42;;;;;;;2.85;0.50;;;;;;;;;;5062778;28;20025;-75
2022/06/09 02:23:09;;;;;;;3.75;0.57;;;;;;;;;;5070539;28;20048;-75
2022/06/09 02:25:35;;;;;;;4.10;0.88;;;;;;;;;;5068367;28;20815;-74
2022/06/09 02:28:01;;;;;;;4.65;1.00;;;;;;;;;;5067445;28;20040;-74
2022/06/09 02:30:27;;;;;;;3.20;0.90;;;;;;;;;;5071630;28;20040;-74
2022/06/09 02:32:53;;;;;;;4.75;0.90;;;;;;;;;;5067932;28;20029;-74
2022/06/09 02:35:19;;;;;;;2.90;0.85;;;;;;;;;;5071310;28;20512;-75
2022/06/09 02:37:45;;;;;;;2.78;0.80;;;;;;;;;;5070957;28;20070;-74
2022/06/09 02:40:11;;;;;;;3.03;0.60;;;;;;;;;;5070918;28;20105;-74
2022/06/09 02:42:37;;;;;;;4.05;0.70;;;;;;;;;;5062549;28;20029;-74
2022/06/09 02:45:04;;;;;;;2.72;0.70;;;;;;;;;;5067834;28;20033;-74
2022/06/09 02:47:30;;;;;;;3.67;1.15;;;;;;;;;;5059662;28;20486;-75
2022/06/09 02:49:56;;;;;;;9.25;1.13;;;;;;;;;;5066653;28;20024;-74
2022/06/09 02:52:22;;;;;;;8.07;1.48;;;;;;;;;;5065299;28;20024;-74
2022/06/09 02:54:48;;;;;;;6.07;1.52;;;;;;;;;;5058447;28;20033;-75
2022/06/09 02:57:14;;;;;;;4.57;0.85;;;;;;;;;;5059808;28;20025;-74
2022/06/09 02:59:40;;;;;;;3.53;0.90;;;;;;;;;;5070935;28;20040;-75
2022/06/09 03:02:06;;;;;;;3.53;0.80;;;;;;;;;;5060352;28;20041;-75
2022/06/09 03:04:32;;;;;;;2.45;0.63;;;;;;;;;;5061110;28;20359;-74
2022/06/09 03:06:58;;;;;;;4.78;0.60;;;;;;;;;;5061977;28;20021;-74
2022/06/09 03:09:24;;;;;;;5.28;0.40;;;;;;;;;;5064274;28;20057;-75
2022/06/09 03:11:50;;;;;;;3.33;0.40;;;;;;;;;;5063219;28;20033;-75
2022/06/09 03:14:16;;;;;;;2.75;0.73;;;;;;;;;;5064693;28;20036;-74
2022/06/09 03:16:42;;;;;;;4.57;0.80;;;;;;;;;;5053976;28;20037;-75
2022/06/09 03:19:08;;;;;;;4.80;1.02;;;;;;;;;;5062399;28;20036;-74
2022/06/09 03:21:35;;;;;;;3.08;0.90;;;;;;;;;;5051999;28;20386;-74
2022/06/09 03:24:01;;;;;;;5.05;1.00;;;;;;;;;;5052787;28;20354;-74
2022/06/09 03:26:27;;;;;;;3.88;0.85;;;;;;;;;;5061417;28;20028;-75
2022/06/09 03:28:53;;;;;;;3.42;1.13;;;;;;;;;;5050603;28;20055;-75
2022/06/09 03:31:19;;;;;;;3.00;1.02;;;;;;;;;;5061256;28;20720;-75
2022/06/09 03:33:46;;;;;;;5.95;1.10;;;;;;;;;;5067620;28;20035;-75
2022/06/09 03:36:13;;;;;;;3.75;0.90;;;;;;;;;;5055011;28;20036;-74
2022/06/09 03:38:40;;;;;;;5.00;2.30;;;;;;;;;;5058824;28;20036;-74
2022/06/09 03:41:07;;;;;;;5.05;2.17;;;;;;;;;;5050492;28;20029;-75
2022/06/09 03:43:34;;;;;;;4.13;1.63;;;;;;;;;;5060866;28;20111;-75
2022/06/09 03:46:00;;;;;;;3.85;1.17;;;;;;;;;;5069890;28;20025;-74
2022/06/09 03:48:27;;;;;;;3.22;0.90;;;;;;;;;;5068484;28;20087;-74
2022/06/09 03:50:53;;;;;;;6.60;0.70;;;;;;;;;;5062799;28;20037;-75
2022/06/09 03:53:19;;;;;;;3.42;0.70;;;;;;;;;;5065847;28;20531;-75
2022/06/09 03:55:45;;;;;;;3.10;0.65;;;;;;;;;;5066507;28;20043;-74
2022/06/09 03:58:11;;;;;;;2.83;1.05;;;;;;;;;;5064534;28;20377;-74
2022/06/09 04:00:37;;;;;;;13.65;1.10;;;;;;;;;;5067154;28;20521;-73
2022/06/09 04:03:04;;;;;;;5.65;1.50;;;;;;;;;;5060621;28;20021;-74
2022/06/09 04:05:30;;;;;;;7.43;3.15;;;;;;;;;;5056988;28;20040;-74
2022/06/09 04:07:58;;;;;;;3.88;1.63;;;;;;;;;;5070757;28;20036;-74
2022/06/09 04:10:26;;;;;;;4.95;1.10;;;;;;;;;;5065049;28;20056;-74
2022/06/09 04:12:53;;;;;;;2.92;0.85;;;;;;;;;;5053653;28;20063;-74
2022/06/09 04:15:19;;;;;;;3.63;1.00;;;;;;;;;;5067457;28;20120;-74
2022/06/09 04:17:46;;;;;;;5.18;2.00;;;;;;;;;;5060519;28;20041;-74
2022/06/09 04:20:13;;;;;;;4.95;1.10;;;;;;;;;;5059288;28;20047;-75
2022/06/09 04:22:40;;;;;;;8.73;2.15;;;;;;;;;;5061027;28;20033;-75
2022/06/09 04:25:06;;;;;;;4.80;1.30;;;;;;;;;;5065393;28;20482;-74
2022/06/09 04:27:32;;;;;;;2.40;0.50;;;;;;;;;;5069360;28;20039;-75
2022/06/09 04:29:58;;;;;;;7.13;0.75;;;;;;;;;;5062791;28;20063;-75
2022/06/09 04:32:25;;;;;;;2.70;0.57;;;;;;;;;;5067097;28;20620;-75
2022/06/09 04:34:51;;;;;;;3.42;0.30;;;;;;;;;;5064993;28;20501;-74
2022/06/09 04:37:17;;;;;;;7.38;2.55;;;;;;;;;;5061085;28;20036;-74
2022/06/09 04:39:43;;;;;;;3.20;1.17;;;;;;;;;;5063029;28;20032;-74
2022/06/09 04:42:09;;;;;;;3.88;0.95;;;;;;;;;;5067924;28;20039;-74
2022/06/09 04:44:35;;;;;;;6.45;1.58;;;;;;;;;;5067568;28;20037;-74
2022/06/09 04:47:01;;;;;;;4.53;2.05;;;;;;;;;;5068179;28;20024;-74
2022/06/09 04:49:27;;;;;;;4.50;1.92;;;;;;;;;;5068234;28;20040;-75
2022/06/09 04:51:53;;;;;;;7.05;2.20;;;;;;;;;;5068608;28;20078;-74
2022/06/09 04:54:19;;;;;;;4.88;2.92;;;;;;;;;;5067545;28;20039;-74
2022/06/09 04:56:45;;;;;;;6.25;2.45;;;;;;;;;;5062982;28;20043;-74
2022/06/09 04:59:12;;;;;;;4.55;1.98;;;;;;;;;;5055148;28;20036;-75
2022/06/09 05:01:38;;;;;;;3.50;1.38;;;;;;;;;;5058758;28;20130;-74
2022/06/09 05:04:04;;;;;;;6.88;2.65;;;;;;;;;;5069127;28;20457;-74
2022/06/09 05:06:31;;;;;;;3.22;1.75;;;;;;;;;;5068619;28;20036;-75
2022/06/09 05:08:57;;;;;;;4.25;1.20;;;;;;;;;;5068512;28;20582;-74
2022/06/09 05:11:24;;;;;;;2.88;0.70;;;;;;;;;;5057809;28;20711;-74
2022/06/09 05:13:51;;;;;;;6.40;0.77;;;;;;;;;;5066940;28;20387;-74
2022/06/09 05:16:17;;;;;;;4.38;1.15;;;;;;;;;;5053768;28;20048;-75
2022/06/09 05:18:43;;;;;;;4.78;1.50;;;;;;;;;;5054245;28;20068;-75
2022/06/09 05:21:10;;;;;;;8.02;1.90;;;;;;;;;;5069992;28;20067;-75
2022/06/09 05:23:36;;;;;;;9.85;1.98;;;;;;;;;;5073605;28;20031;-75
2022/06/09 05:26:04;;;;;;;4.78;1.10;;;;;;;;;;5062183;28;20024;-75
2022/06/09 05:28:30;;;;;;;4.63;1.20;;;;;;;;;;5062588;28;20036;-74
2022/06/09 05:30:56;;;;;;;3.50;0.60;;;;;;;;;;5071878;28;20474;-74
2022/06/09 05:33:22;;;;;;;4.53;0.40;;;;;;;;;;5058469;28;20040;-74
2022/06/09 05:35:49;;;;;;;5.32;0.40;;;;;;;;;;5059161;28;20445;-74
2022/06/09 05:46:31;;;;;;;1.73;0.60;;;;;;;;;;5060186;28;20497;-75
2022/06/09 05:48:57;;;;;;;2.45;0.60;;;;;;;;;;5054727;28;20045;-74
2022/06/09 05:51:23;;;;;;;4.85;0.55;;;;;;;;;;5064174;28;20036;-75
2022/06/09 05:53:49;;;;;;;2.17;0.50;;;;;;;;;;5053604;28;20802;-74
2022/06/09 05:56:16;;;;;;;2.72;0.70;;;;;;;;;;5070224;28;20035;-75
2022/06/09 05:58:42;;;;;;;3.08;1.00;;;;;;;;;;5071043;28;20041;-74
2022/06/09 06:01:09;;;;;;;4.80;0.70;;;;;;;;;;5066047;28;20393;-75
2022/06/09 06:03:36;;;;;;;8.18;0.98;;;;;;;;;;5068956;28;20032;-75
2022/06/09 06:08:47;;;;;;;9.23;1.20;;;;;;;;;;5062087;28;20815;-74
2022/06/09 06:11:16;;;;;;;4.28;1.52;;;;;;;;;;5059798;28;20037;-74
2022/06/09 06:13:43;;;;;;;6.50;1.40;;;;;;;;;;5067262;28;20037;-74
2022/06/09 06:16:09;;;;;;;4.85;1.55;;;;;;;;;;5066239;28;20464;-75
2022/06/09 06:18:35;;;;;;;8.73;1.48;;;;;;;;;;5068821;28;20473;-74
2022/06/09 06:21:01;;;;;;;5.30;1.40;;;;;;;;;;5067818;28;20473;-74
2022/06/09 06:23:27;;;;;;;6.25;1.80;;;;;;;;;;5055362;28;20028;-74
2022/06/09 06:25:54;;;;;;;4.57;1.70;;;;;;;;;;5062876;28;20028;-74
2022/06/09 06:28:21;;;;;;;7.88;1.70;;;;;;;;;;5066549;28;20465;-74
2022/06/09 06:30:47;;;;;;;5.38;1.60;;;;;;;;;;5067267;28;20033;-74
2022/06/09 06:33:13;;;;;;;4.82;1.50;;;;;;;;;;5066649;28;20036;-75
2022/06/09 06:35:40;;;;;;;7.82;1.27;;;;;;;;;;5064719;28;20029;-75
2022/06/09 06:38:06;;;;;;;3.00;0.95;;;;;;;;;;5062573;28;20032;-75
2022/06/09 06:40:32;;;;;;;8.43;1.67;;;;;;;;;;5062272;28;20062;-74
2022/06/09 06:42:58;;;;;;;5.13;1.42;;;;;;;;;;5063396;28;20477;-75
2022/06/09 06:45:25;;;;;;;5.97;1.25;;;;;;;;;;5066586;28;20036;-74
2022/06/09 06:47:51;;;;;;;7.22;1.00;;;;;;;;;;5068301;28;20028;-79
2022/06/09 06:50:18;;;;;;;7.78;1.50;;;;;;;;;;5068995;28;20043;-75
2022/06/09 06:52:44;;;;;;;6.13;1.10;;;;;;;;;;5068084;28;20021;-74
2022/06/09 06:55:13;;;;;;;9.07;1.65;;;;;;;;;;5070404;28;20474;-74
2022/06/09 06:57:39;;;;;;;12.20;1.55;;;;;;;;;;5068056;28;20032;-74
2022/06/09 07:00:05;;;;;;;11.32;1.67;;;;;;;;;;5064190;28;20037;-75
2022/06/09 07:02:31;;;;;;;3.85;1.38;;;;;;;;;;5060721;28;20028;-74
2022/06/09 07:04:57;;;;;;;5.78;1.35;;;;;;;;;;5059579;28;20033;-74
2022/06/09 07:07:25;;;;;;;5.05;1.50;;;;;;;;;;5061878;28;20388;-74
2022/06/09 07:09:51;;;;;;;6.57;1.75;;;;;;;;;;5068370;28;20060;-74
2022/06/09 07:12:17;;;;;;;4.90;1.63;;;;;;;;;;5065184;28;20036;-75
2022/06/09 07:14:44;;;;;;;6.15;1.55;;;;;;;;;;5069380;28;20048;-75
2022/06/09 07:17:10;;;;;;;3.33;1.02;;;;;;;;;;5069565;28;20038;-74
2022/06/09 07:19:36;;;;;;;4.18;1.20;;;;;;;;;;5070755;28;20119;-74
2022/06/09 07:22:02;;;;;;;7.88;1.02;;;;;;;;;;5068508;28;20099;-74
2022/06/09 07:24:28;;;;;;;4.60;1.30;;;;;;;;;;5064506;28;20036;-74
2022/06/09 07:26:54;;;;;;;3.97;1.20;;;;;;;;;;5063393;28;20025;-75
2022/06/09 07:29:21;;;;;;;7.00;1.75;;;;;;;;;;5070884;28;20116;-75
2022/06/09 07:31:48;;;;;;;3.67;1.20;;;;;;;;;;5061854;28;20028;-74
2022/06/09 07:34:14;;;;;;;3.53;0.70;;;;;;;;;;5062958;28;20047;-75
2022/06/09 07:36:40;;;;;;;4.18;0.93;;;;;;;;;;5052318;28;20684;-75
2022/06/09 07:39:07;;;;;;;1.88;0.38;;;;;;;;;;5062916;28;20040;-74
2022/06/09 07:41:33;;;;;;;1.70;0.60;;;;;;;;;;5064262;28;20623;-75
2022/06/09 07:44:01;;;;;;;2.92;0.70;;;;;;;;;;5068692;28;20029;-74
2022/06/09 07:46:27;;;;;;;2.38;0.90;;;;;;;;;;5062014;28;20025;-75
2022/06/09 07:48:54;;;;;;;2.13;0.30;;;;;;;;;;5067637;28;20389;-74
2022/06/09 07:51:20;;;;;;;2.63;0.50;;;;;;;;;;5053487;28;20045;-75
2022/06/09 07:53:46;;;;;;;2.88;0.70;;;;;;;;;;5064193;28;20037;-74
2022/06/09 07:56:12;;;;;;;2.40;0.50;;;;;;;;;;5068901;28;20853;-74
2022/06/09 07:58:39;;;;;;;3.35;0.40;;;;;;;;;;5053458;28;20043;-74
2022/06/09 08:01:05;;;;;;;3.03;0.40;;;;;;;;;;5062251;28;20024;-75
2022/06/09 08:03:31;;;;;;;1.80;0.40;;;;;;;;;;5066396;28;20037;-75
2022/06/09 08:05:57;;;;;;;3.50;0.52;;;;;;;;;;5056149;28;20029;-74
2022/06/09 08:08:23;;;;;;;4.72;0.68;;;;;;;;;;5056054;28;20044;-75
2022/06/09 08:10:49;;;;;;;4.22;0.60;;;;;;;;;;5062862;28;20036;-74
2022/06/09 08:13:15;;;;;;;1.60;0.45;;;;;;;;;;5069381;28;20461;-74
2022/06/09 08:15:43;;;;;;;5.57;0.93;;;;;;;;;;5062908;28;20406;-74
2022/06/09 08:18:09;;;;;;;3.10;0.70;;;;;;;;;;5055893;28;20052;-74
2022/06/09 08:20:36;;;;;;;4.38;0.93;;;;;;;;;;5058841;28;20020;-74
2022/06/09 08:23:09;;;;;;;4.30;1.33;;;;;;;;;;5065388;28;20787;-75
2022/06/09 08:25:36;;;;;;;7.75;1.08;;;;;;;;;;5065150;28;20044;-74
2022/06/09 08:28:03;;;;;;;4.90;0.82;;;;;;;;;;5066090;28;20145;-74
2022/06/09 08:30:30;;;;;;;5.50;0.95;;;;;;;;;;5062779;28;20075;-74
2022/06/09 08:32:57;;;;;;;5.75;0.90;;;;;;;;;;5064692;28;20158;-74
2022/06/09 08:35:23;;;;;;;4.15;0.80;;;;;;;;;;5062595;28;20039;-75
2022/06/09 08:37:51;;;;;;;7.20;1.10;;;;;;;;;;5061418;28;20079;-74
2022/06/09 08:40:19;;;;;;;6.50;0.95;;;;;;;;;;5063102;28;20082;-74
2022/06/09 08:43:04;;;;;;;4.35;0.90;;;;;;;;;;5066678;28;20078;-74
2022/06/09 08:45:34;;;;;;;4.82;0.73;;;;;;;;;;5061704;28;20040;-74
2022/06/09 08:48:01;;;;;;;5.88;0.90;;;;;;;;;;5068806;28;20051;-74
2022/06/09 08:50:29;;;;;;;3.92;0.80;;;;;;;;;;5064357;28;20515;-74
2022/06/09 08:53:12;;;;;;;8.25;0.88;;;;;;;;;;5067021;28;20500;-75
2022/06/09 08:55:40;;;;;;;7.97;1.50;;;;;;;;;;5059407;28;20055;-75
2022/06/09 08:58:09;;;;;;;9.23;1.38;;;;;;;;;;5059782;28;20115;-74
2022/06/09 09:00:40;;;;;;;5.90;0.95;;;;;;;;;;5057906;28;20040;-74
2022/06/09 09:03:12;;;;;;;3.80;0.70;;;;;;;;;;5064335;28;20031;-75
2022/06/09 09:05:44;;;;;;;5.95;1.10;;;;;;;;;;5067297;28;20105;-75
2022/06/09 09:08:12;;;;;;;6.82;0.90;;;;;;;;;;5058082;28;20037;-74
2022/06/09 09:10:41;;;;;;;5.68;1.30;;;;;;;;;;5064688;28;20840;-75
2022/06/09 09:13:07;;;;;;;4.97;0.88;;;;;;;;;;5057965;28;20044;-75
2022/06/09 09:15:40;;;;;;;5.65;1.33;;;;;;;;;;5052947;28;20070;-74
2022/06/09 09:18:24;;;;;;;7.95;0.70;;;;;;;;;;5066656;28;20025;-75
2022/06/09 09:20:53;;;;;;;2.83;0.65;;;;;;;;;;5060764;28;20033;-75
2022/06/09 09:23:27;;;;;;;8.10;0.98;;;;;;;;;;5062205;28;20025;-74
2022/06/09 09:25:56;;;;;;;6.53;0.93;;;;;;;;;;5057214;28;20056;-75
2022/06/09 09:28:27;;;;;;;3.10;0.82;;;;;;;;;;5063320;28;20056;-75
2022/06/09 09:31:16;;;;;;;6.63;0.75;;;;;;;;;;5068345;28;20122;-75
2022/06/09 09:33:42;;;;;;;4.88;0.98;;;;;;;;;;5057600;28;20132;-75
2022/06/09 09:36:18;;;;;;;4.63;0.80;;;;;;;;;;5059590;28;20135;-74
2022/06/09 09:38:49;;;;;;;6.60;0.98;;;;;;;;;;5060182;28;20033;-74
2022/06/09 09:41:26;;;;;;;4.85;0.80;;;;;;;;;;5060867;28;20478;-75
2022/06/09 09:43:52;;;;;;;6.43;0.95;;;;;;;;;;5065720;28;20355;-74
2022/06/09 09:46:29;;;;;;;5.07;1.00;;;;;;;;;;5055186;28;20029;-74
2022/06/09 09:48:56;;;;;;;8.73;1.00;;;;;;;;;;5058613;28;20032;-74
2022/06/09 09:51:31;;;;;;;6.70;0.77;;;;;;;;;;5056847;28;20129;-74
2022/06/09 09:53:57;;;;;;;2.35;0.70;;;;;;;;;;5056698;28;20048;-74
2022/06/09 09:56:29;;;;;;;5.20;0.80;;;;;;;;;;5060296;28;20568;-74
2022/06/09 09:58:57;;;;;;;5.35;0.90;;;;;;;;;;5061083;28;20029;-74
2022/06/09 10:01:23;;;;;;;3.95;0.80;;;;;;;;;;5060041;28;20032;-74
2022/06/09 10:09:35;;;;;;;6.00;0.85;;;;;;;;;;5059869;28;20071;-74
2022/06/09 10:12:07;;;;;;;6.35;1.35;;;;;;;;;;5065587;28;20086;-75
2022/06/09 10:14:33;;;;;;;6.35;1.30;;;;;;;;;;5054732;28;20087;-74
2022/06/09 10:17:00;;;;;;;4.25;0.93;;;;;;;;;;5065036;28;20040;-74
2022/06/09 10:19:28;;;;;;;6.03;0.98;;;;;;;;;;5068894;28;20128;-75
2022/06/09 10:21:54;;;;;;;4.32;0.93;;;;;;;;;;5066525;28;20060;-74
2022/06/09 10:24:23;;;;;;;2.47;0.57;;;;;;;;;;5063413;28;20086;-75
2022/06/09 10:26:54;;;;;;;3.45;0.80;;;;;;;;;;5071243;28;20036;-75
2022/06/09 10:29:38;;;;;;;2.38;0.45;;;;;;;;;;5059181;28;20509;-74
2022/06/09 10:32:05;;;;;;;3.03;0.50;;;;;;;;;;5070798;28;20481;-74
2022/06/09 10:34:43;;;;;;;2.35;0.40;;;;;;;;;;5063022;28;20036;-75
2022/06/09 10:37:27;;;;;;;3.90;0.60;;;;;;;;;;5069503;28;20123;-74
2022/06/09 10:40:07;;;;;;;4.45;0.60;;;;;;;;;;5065994;28;20119;-74
2022/06/09 10:42:39;;;;;;;8.10;0.70;;;;;;;;;;5065091;28;20039;-75
2022/06/09 10:45:13;;;;;;;3.70;0.60;;;;;;;;;;5071267;28;20131;-75
2022/06/09 10:56:22;;;;;;;4.25;0.75;;;;;;;;;;5065626;28;20043;-75
2022/06/09 10:58:54;;;;;;;4.88;0.68;;;;;;;;;;5062679;28;20036;-74
2022/06/09 11:01:23;;;;;;;4.40;0.80;;;;;;;;;;5055854;28;20036;-76
2022/06/09 11:03:51;;;;;;;3.97;0.70;;;;;;;;;;5059973;28;20059;-76
2022/06/09 11:06:36;;;;;;;5.55;0.45;;;;;;;;;;5060747;28;20029;-76
2022/06/09 11:09:27;;;;;;;5.40;0.75;;;;;;;;;;5062172;28;20040;-76
2022/06/09 11:11:56;;;;;;;3.20;0.30;;;;;;;;;;5059154;28;20138;-76
2022/06/09 11:14:37;;;;;;;3.80;0.60;;;;;;;;;;5055938;28;20040;-75
2022/06/09 11:17:21;;;;;;;10.47;0.90;;;;;;;;;;5066208;28;20028;-75
2022/06/09 11:19:48;;;;;;;2.70;0.50;;;;;;;;;;5056329;28;20076;-74
2022/06/09 11:22:33;;;;;;;4.47;0.70;;;;;;;;;;5056135;28;20088;-74
2022/06/09 11:25:02;;;;;;;4.07;0.60;;;;;;;;;;5061654;28;20470;-74
2022/06/09 11:27:38;;;;;;;8.43;1.48;;;;;;;;;;5057787;28;20025;-76
2022/06/09 11:30:19;;;;;;;2.38;0.30;;;;;;;;;;5057136;28;20115;-76
2022/06/09 11:32:49;;;;;;;1.65;0.40;;;;;;;;;;5062539;28;20036;-75
2022/06/09 11:35:18;;;;;;;1.05;0.30;;;;;;;;;;5060601;28;20115;-76
2022/06/09 11:37:46;;;;;;;7.35;1.00;;;;;;;;;;5060386;28;20036;-76
2022/06/09 11:40:17;;;;;;;6.15;0.60;;;;;;;;;;5058853;28;20116;-76
2022/06/09 11:42:43;;;;;;;3.03;0.50;;;;;;;;;;5059243;28;20025;-76
2022/06/09 11:45:29;;;;;;;3.78;0.98;;;;;;;;;;5059670;28;20490;-74
2022/06/09 11:47:57;;;;;;;7.03;1.23;;;;;;;;;;5063290;28;20029;-75
2022/06/09 11:50:25;;;;;;;2.47;0.40;;;;;;;;;;5051390;28;20067;-76
2022/06/09 11:52:51;;;;;;;3.40;0.47;;;;;;;;;;5060327;28;20024;-76
2022/06/09 11:55:57;;;;;;;4.43;0.57;;;;;;;;;;5060194;28;20043;-75
2022/06/09 11:58:38;;;;;;;4.20;0.60;;;;;;;;;;5055088;28;20033;-75
2022/06/09 12:01:19;;;;;;;4.18;0.65;;;;;;;;;;5062826;28;20032;-75
2022/06/09 12:04:04;;;;;;;3.40;0.52;;;;;;;;;;5062346;28;20136;-75
2022/06/09 12:06:32;;;;;;;2.50;0.25;;;;;;;;;;5062981;28;20035;-76
2022/06/09 12:09:09;;;;;;;1.42;0.30;;;;;;;;;;5055946;28;20052;-76
2022/06/09 12:11:55;;;;;;;2.30;0.30;;;;;;;;;;5061156;28;20039;-75
2022/06/09 12:14:30;;;;;;;2.65;0.30;;;;;;;;;;5055729;28;20036;-76
2022/06/09 12:17:25;;;;;;;3.08;0.43;;;;;;;;;;5058949;28;20037;-76
2022/06/09 12:19:54;;;;;;;1.92;0.40;;;;;;;;;;5064785;28;20055;-75
2022/06/09 12:22:45;;;;;;;1.98;0.30;;;;;;;;;;5062211;28;20035;-75
2022/06/09 12:25:11;;;;;;;2.65;0.30;;;;;;;;;;5061289;28;20041;-76
2022/06/09 12:27:37;;;;;;;1.75;0.30;;;;;;;;;;5057773;28;20028;-76
2022/06/09 12:30:03;;;;;;;4.32;0.32;;;;;;;;;;5066088;28;20028;-75
2022/06/09 12:32:38;;;;;;;4.53;0.60;;;;;;;;;;5064752;28;20441;-76
2022/06/09 12:35:14;;;;;;;4.13;0.63;;;;;;;;;;5058893;28;20025;-76
2022/06/09 12:37:49;;;;;;;2.88;0.30;;;;;;;;;;5063781;28;20701;-76
2022/06/09 12:40:18;;;;;;;4.88;0.40;;;;;;;;;;5059598;28;20829;-75
2022/06/09 12:42:49;;;;;;;2.13;0.22;;;;;;;;;;5054672;28;20071;-76
2022/06/09 12:45:15;;;;;;;4.10;0.40;;;;;;;;;;5060412;28;20044;-75
2022/06/09 12:48:00;;;;;;;2.45;0.40;;;;;;;;;;5055792;28;20278;-75
2022/06/09 12:50:38;;;;;;;1.67;0.30;;;;;;;;;;5063354;28;20075;-76
2022/06/09 12:53:07;;;;;;;6.20;0.50;;;;;;;;;;5058540;28;20056;-75
2022/06/09 12:55:35;;;;;;;3.58;0.40;;;;;;;;;;5061815;28;20039;-76
2022/06/09 12:58:07;;;;;;;1.95;0.30;;;;;;;;;;5060412;28;20040;-75
2022/06/09 13:00:35;;;;;;;2.33;0.55;;;;;;;;;;5064673;28;20047;-75
2022/06/09 13:03:01;;;;;;;8.40;0.43;;;;;;;;;;5062608;28;20406;-75
2022/06/09 13:05:32;;;;;;;2.90;0.40;;;;;;;;;;5057230;28;20036;-75
2022/06/09 13:08:18;;;;;;;5.88;0.75;;;;;;;;;;5067491;28;20951;-76
2022/06/09 13:10:47;;;;;;;4.47;0.60;;;;;;;;;;5065715;28;20371;-76
2022/06/09 13:13:18;;;;;;;1.88;0.38;;;;;;;;;;5060048;28;20036;-75
2022/06/09 13:15:46;;;;;;;1.37;0.37;;;;;;;;;;5060371;28;20474;-75
2022/06/09 13:18:12;;;;;;;4.18;0.70;;;;;;;;;;5066891;28;20140;-75
2022/06/09 13:20:39;;;;;;;5.00;0.90;;;;;;;;;;5063682;28;20127;-75
2022/06/09 13:23:10;;;;;;;4.95;1.00;;;;;;;;;;5054149;28;20363;-75
2022/06/09 13:25:36;;;;;;;5.00;0.70;;;;;;;;;;5064229;28;20039;-75
2022/06/09 13:28:03;;;;;;;4.00;0.60;;;;;;;;;;5053569;28;20024;-76
2022/06/09 13:30:32;;;;;;;4.22;0.50;;;;;;;;;;5061267;28;20670;-76
2022/06/09 13:32:58;;;;;;;3.33;0.57;;;;;;;;;;5056973;28;20153;-76
2022/06/09 13:35:33;;;;;;;4.82;0.80;;;;;;;;;;5065130;28;20685;-76
2022/06/09 13:38:05;;;;;;;5.10;0.43;;;;;;;;;;5058473;28;20119;-76
2022/06/09 13:40:55;;;;;;;3.25;0.50;;;;;;;;;;5055669;28;20448;-75
2022/06/09 13:43:29;;;;;;;3.30;0.50;;;;;;;;;;5061752;28;20041;-75
2022/06/09 13:46:12;;;;;;;3.00;0.60;;;;;;;;;;5067272;28;20033;-75
2022/06/09 13:48:41;;;;;;;0.77;0.22;;;;;;;;;;5067583;28;20533;-75
2022/06/09 13:51:09;;;;;;;4.85;0.40;;;;;;;;;;5063854;28;20454;-75
2022/06/09 13:53:48;;;;;;;2.40;0.40;;;;;;;;;;5068702;28;20032;-75
2022/06/09 13:56:15;;;;;;;4.95;0.40;;;;;;;;;;5064764;28;20065;-75
2022/06/09 13:58:41;;;;;;;4.20;0.60;;;;;;;;;;5065671;28;20033;-75
2022/06/09 14:01:07;;;;;;;4.43;0.52;;;;;;;;;;5058744;28;20379;-75
2022/06/09 14:03:38;;;;;;;6.55;0.60;;;;;;;;;;5066260;28;20048;-76
2022/06/09 14:06:08;;;;;;;5.90;0.50;;;;;;;;;;5057580;28;20076;-76
2022/06/09 14:08:36;;;;;;;3.58;0.40;;;;;;;;;;5064817;28;20036;-76
2022/06/09 14:11:03;;;;;;;1.48;0.30;;;;;;;;;;5063593;28;20048;-75
2022/06/09 14:13:29;;;;;;;4.00;0.60;;;;;;;;;;5064969;28;20074;-76
2022/06/09 14:15:55;;;;;;;3.95;0.63;;;;;;;;;;5067850;28;20044;-76
2022/06/09 14:18:26;;;;;;;9.48;0.70;;;;;;;;;;5067494;28;20025;-76
2022/06/09 14:20:53;;;;;;;5.93;0.85;;;;;;;;;;5065845;28;20028;-76
2022/06/09 14:23:21;;;;;;;7.63;1.02;;;;;;;;;;5068213;28;20359;-76
2022/06/09 14:25:47;;;;;;;3.47;0.52;;;;;;;;;;5066631;28;20033;-76
2022/06/09 14:28:13;;;;;;;5.10;0.50;;;;;;;;;;5066785;28;20032;-75
2022/06/09 14:30:39;;;;;;;2.67;0.50;;;;;;;;;;5068274;28;20031;-75
2022/06/09 14:33:09;;;;;;;4.03;0.57;;;;;;;;;;5065024;28;20024;-76
2022/06/09 14:35:35;;;;;;;6.28;0.68;;;;;;;;;;5062665;28;20059;-75
2022/06/09 14:38:01;;;;;;;6.75;0.50;;;;;;;;;;5059291;28;20505;-75
2022/06/09 14:40:29;;;;;;;8.65;0.70;;;;;;;;;;5057979;28;20103;-75
2022/06/09 14:42:56;;;;;;;5.72;0.50;;;;;;;;;;5059456;28;20028;-76
2022/06/09 14:45:22;;;;;;;3.08;0.60;;;;;;;;;;5069863;28;20033;-75
2022/06/09 14:47:48;;;;;;;3.60;0.52;;;;;;;;;;5064808;28;20056;-75
2022/06/09 14:50:15;;;;;;;6.13;0.80;;;;;;;;;;5065068;28;20086;-75
2022/06/09 14:52:41;;;;;;;3.58;0.57;;;;;;;;;;5059049;28;20075;-76
2022/06/09 14:55:08;;;;;;;4.57;0.70;;;;;;;;;;5064795;28;20056;-76
2022/06/09 14:57:34;;;;;;;5.90;0.60;;;;;;;;;;5062238;28;20025;-75
2022/06/09 15:00:00;;;;;;;3.47;0.52;;;;;;;;;;5060930;28;20074;-76
2022/06/09 15:02:28;;;;;;;3.10;0.43;;;;;;;;;;5061238;28;20040;-75
2022/06/09 15:04:54;;;;;;;4.57;0.52;;;;;;;;;;5062941;28;20017;-75
2022/06/09 15:07:21;;;;;;;5.60;0.60;;;;;;;;;;5062711;28;20101;-75
2022/06/09 15:09:47;;;;;;;5.70;0.50;;;;;;;;;;5065875;28;20091;-75
2022/06/09 15:12:14;;;;;;;5.35;0.60;;;;;;;;;;5064954;28;20861;-75
2022/06/09 15:14:40;;;;;;;3.47;0.50;;;;;;;;;;5060461;28;20021;-76
2022/06/09 15:17:07;;;;;;;3.88;0.60;;;;;;;;;;5059618;28;20048;-75
2022/06/09 15:19:33;;;;;;;3.78;0.75;;;;;;;;;;5056110;28;20071;-75